GMA125 EGHH-EGPF
Flight info
| Callsign | GMA125 |
|---|---|
| Flight time | 1h 23m |
| Altitude | 31000 |
| Route | SAM Q41 SILVA M605 DTY Y53 SAPCO N57 POL N601 RIBEL DCT ASLIB |
| Aircraft | BE20/L-SBGRY/S |
Departure
| Time | 2026-05-07 07:47 |
|---|---|
| Airport | Bournemouth Airport (EGHH) |
Arrival
| Time | 2026-05-07 09:11 |
|---|---|
| Airport | Glasgow Airport (EGPF) |
| Time | Latitude | Longitude | Altitude | Speed | Heading |
|---|---|---|---|---|---|
| 2026-05-07 07:33 | 50.78628 | -1.83953 | 41 ft | 0 kts | 262° |
| 2026-05-07 07:39 | 50.78628 | -1.83959 | 41 ft | 4 kts | 262° |
| 2026-05-07 07:40 | 50.78625 | -1.84044 | 41 ft | 4 kts | 261° |
| 2026-05-07 07:40 | 50.78625 | -1.84045 | 41 ft | 0 kts | 258° |
| 2026-05-07 07:42 | 50.78623 | -1.84057 | 41 ft | 5 kts | 258° |
| 2026-05-07 07:43 | 50.78619 | -1.84084 | 41 ft | 9 kts | 256° |
| 2026-05-07 07:43 | 50.78563 | -1.84105 | 41 ft | 13 kts | 165° |
| 2026-05-07 07:43 | 50.78474 | -1.84083 | 41 ft | 9 kts | 214° |
| 2026-05-07 07:43 | 50.78411 | -1.84201 | 41 ft | 19 kts | 232° |
| 2026-05-07 07:44 | 50.78336 | -1.84398 | 41 ft | 23 kts | 247° |
| 2026-05-07 07:44 | 50.78261 | -1.84583 | 41 ft | 24 kts | 224° |
| 2026-05-07 07:44 | 50.78134 | -1.84759 | 41 ft | 22 kts | 249° |
| 2026-05-07 07:44 | 50.78123 | -1.84885 | 41 ft | 10 kts | 250° |
| 2026-05-07 07:45 | 50.78027 | -1.84951 | 41 ft | 20 kts | 198° |
| 2026-05-07 07:45 | 50.77997 | -1.84967 | 41 ft | 0 kts | 200° |
| 2026-05-07 07:46 | 50.77994 | -1.84969 | 42 ft | 3 kts | 199° |
| 2026-05-07 07:46 | 50.77935 | -1.85002 | 42 ft | 15 kts | 200° |
| 2026-05-07 07:46 | 50.77879 | -1.85005 | 44 ft | 6 kts | 69° |
| 2026-05-07 07:46 | 50.77907 | -1.84849 | 43 ft | 32 kts | 75° |
| 2026-05-07 07:47 | 50.78026 | -1.84136 | 38 ft | 100 kts | 76° |
| 2026-05-07 07:47 | 50.78230 | -1.82874 | 233 ft | 131 kts | 75° |
| 2026-05-07 07:47 | 50.78497 | -1.81371 | 601 ft | 151 kts | 74° |
| 2026-05-07 07:47 | 50.78822 | -1.79678 | 1039 ft | 166 kts | 72° |
| 2026-05-07 07:48 | 50.79244 | -1.77918 | 1520 ft | 176 kts | 68° |
| 2026-05-07 07:48 | 50.79787 | -1.76180 | 2095 ft | 178 kts | 60° |
| 2026-05-07 07:48 | 50.80707 | -1.74867 | 2578 ft | 181 kts | 34° |
| 2026-05-07 07:48 | 50.81689 | -1.73592 | 3050 ft | 185 kts | 49° |
| 2026-05-07 07:49 | 50.82626 | -1.72210 | 3537 ft | 186 kts | 35° |
| 2026-05-07 07:49 | 50.83697 | -1.70996 | 3926 ft | 194 kts | 36° |
| 2026-05-07 07:49 | 50.84776 | -1.69660 | 4323 ft | 199 kts | 38° |
| 2026-05-07 07:49 | 50.85858 | -1.68262 | 4723 ft | 202 kts | 38° |
| 2026-05-07 07:50 | 50.86950 | -1.66850 | 5113 ft | 204 kts | 38° |
| 2026-05-07 07:50 | 50.88055 | -1.65428 | 5501 ft | 206 kts | 38° |
| 2026-05-07 07:50 | 50.89170 | -1.63992 | 5891 ft | 208 kts | 38° |
| 2026-05-07 07:50 | 50.90296 | -1.62543 | 6291 ft | 210 kts | 38° |
| 2026-05-07 07:51 | 50.91430 | -1.61080 | 6674 ft | 211 kts | 38° |
| 2026-05-07 07:51 | 50.92569 | -1.59610 | 7047 ft | 212 kts | 38° |
| 2026-05-07 07:51 | 50.93713 | -1.58134 | 7422 ft | 212 kts | 38° |
| 2026-05-07 07:51 | 50.94865 | -1.56648 | 7803 ft | 215 kts | 38° |
| 2026-05-07 07:52 | 50.96032 | -1.55140 | 8190 ft | 218 kts | 38° |
| 2026-05-07 07:52 | 50.97213 | -1.53612 | 8583 ft | 220 kts | 39° |
| 2026-05-07 07:52 | 50.98404 | -1.52070 | 8983 ft | 222 kts | 39° |
| 2026-05-07 07:52 | 50.99607 | -1.50513 | 9380 ft | 224 kts | 39° |
| 2026-05-07 07:53 | 51.00803 | -1.48962 | 9778 ft | 226 kts | 39° |
| 2026-05-07 07:53 | 51.02024 | -1.47379 | 10163 ft | 227 kts | 39° |
| 2026-05-07 07:53 | 51.03257 | -1.45779 | 10529 ft | 229 kts | 39° |
| 2026-05-07 07:53 | 51.04493 | -1.44173 | 10901 ft | 231 kts | 39° |
| 2026-05-07 07:54 | 51.05740 | -1.42553 | 11276 ft | 232 kts | 40° |
| 2026-05-07 07:54 | 51.06994 | -1.40922 | 11651 ft | 234 kts | 39° |
| 2026-05-07 07:54 | 51.08193 | -1.39362 | 11991 ft | 235 kts | 39° |
| 2026-05-07 07:54 | 51.09463 | -1.37708 | 12382 ft | 237 kts | 39° |
| 2026-05-07 07:55 | 51.10744 | -1.36038 | 12775 ft | 239 kts | 39° |
| 2026-05-07 07:55 | 51.12024 | -1.34368 | 13170 ft | 241 kts | 39° |
| 2026-05-07 07:55 | 51.13323 | -1.32672 | 13574 ft | 242 kts | 39° |
| 2026-05-07 07:55 | 51.14629 | -1.30967 | 13967 ft | 244 kts | 40° |
| 2026-05-07 07:56 | 51.15944 | -1.29248 | 14334 ft | 245 kts | 39° |
| 2026-05-07 07:56 | 51.17261 | -1.27525 | 14747 ft | 243 kts | 39° |
| 2026-05-07 07:56 | 51.18552 | -1.25834 | 15240 ft | 237 kts | 39° |
| 2026-05-07 07:56 | 51.19897 | -1.24396 | 15751 ft | 231 kts | 23° |
| 2026-05-07 07:57 | 51.20894 | -1.23851 | 16076 ft | 226 kts | 14° |
| 2026-05-07 07:57 | 51.22407 | -1.23219 | 16581 ft | 224 kts | 14° |
| 2026-05-07 07:57 | 51.23893 | -1.22589 | 17093 ft | 222 kts | 14° |
| 2026-05-07 07:57 | 51.25032 | -1.22106 | 17494 ft | 220 kts | 14° |
| 2026-05-07 07:58 | 51.26506 | -1.21482 | 18027 ft | 218 kts | 14° |
| 2026-05-07 07:58 | 51.27967 | -1.20863 | 18537 ft | 216 kts | 14° |
| 2026-05-07 07:58 | 51.29418 | -1.20249 | 19007 ft | 215 kts | 13° |
| 2026-05-07 07:58 | 51.30856 | -1.19639 | 19480 ft | 213 kts | 13° |
| 2026-05-07 07:59 | 51.32283 | -1.19033 | 19969 ft | 211 kts | 13° |
| 2026-05-07 07:59 | 51.33697 | -1.18433 | 20469 ft | 210 kts | 14° |
| 2026-05-07 07:59 | 51.35099 | -1.17837 | 20965 ft | 208 kts | 14° |
| 2026-05-07 07:59 | 51.36489 | -1.17246 | 21482 ft | 206 kts | 14° |
| 2026-05-07 08:00 | 51.37864 | -1.16661 | 21991 ft | 203 kts | 14° |
| 2026-05-07 08:00 | 51.39169 | -1.16105 | 22494 ft | 201 kts | 13° |
| 2026-05-07 08:00 | 51.40511 | -1.15534 | 23026 ft | 198 kts | 14° |
| 2026-05-07 08:00 | 51.41833 | -1.14971 | 23566 ft | 195 kts | 14° |
| 2026-05-07 08:01 | 51.43100 | -1.14431 | 24023 ft | 191 kts | 14° |
| 2026-05-07 08:01 | 51.44342 | -1.13901 | 24467 ft | 187 kts | 13° |
| 2026-05-07 08:01 | 51.45584 | -1.13372 | 24928 ft | 182 kts | 13° |
| 2026-05-07 08:01 | 51.46790 | -1.12858 | 25393 ft | 177 kts | 13° |
| 2026-05-07 08:02 | 51.47978 | -1.12350 | 25800 ft | 179 kts | 14° |
| 2026-05-07 08:02 | 51.49202 | -1.11826 | 26130 ft | 185 kts | 14° |
| 2026-05-07 08:02 | 51.50461 | -1.11287 | 26484 ft | 190 kts | 14° |
| 2026-05-07 08:02 | 51.51755 | -1.10731 | 26831 ft | 195 kts | 14° |
| 2026-05-07 08:03 | 51.53021 | -1.10188 | 27178 ft | 199 kts | 14° |
| 2026-05-07 08:03 | 51.54228 | -1.09670 | 27503 ft | 202 kts | 14° |
| 2026-05-07 08:03 | 51.55596 | -1.09083 | 27867 ft | 205 kts | 14° |
| 2026-05-07 08:03 | 51.56984 | -1.08487 | 28226 ft | 208 kts | 15° |
| 2026-05-07 08:04 | 51.58389 | -1.07882 | 28610 ft | 210 kts | 16° |
| 2026-05-07 08:04 | 51.59806 | -1.07273 | 28979 ft | 212 kts | 16° |
| 2026-05-07 08:04 | 51.61029 | -1.06747 | 29307 ft | 213 kts | 16° |
| 2026-05-07 08:04 | 51.62477 | -1.06271 | 29684 ft | 213 kts | 9° |
| 2026-05-07 08:05 | 51.63943 | -1.05907 | 30062 ft | 213 kts | 10° |
| 2026-05-07 08:05 | 51.65409 | -1.05528 | 30393 ft | 213 kts | 11° |
| 2026-05-07 08:05 | 51.66875 | -1.05150 | 30713 ft | 213 kts | 10° |
| 2026-05-07 08:05 | 51.68298 | -1.04785 | 31023 ft | 213 kts | 10° |
| 2026-05-07 08:06 | 51.69806 | -1.04397 | 31069 ft | 227 kts | 10° |
| 2026-05-07 08:06 | 51.71405 | -1.03984 | 31077 ft | 239 kts | 10° |
| 2026-05-07 08:06 | 51.73081 | -1.03553 | 31080 ft | 248 kts | 10° |
| 2026-05-07 08:06 | 51.74814 | -1.03107 | 31080 ft | 256 kts | 10° |
| 2026-05-07 08:07 | 51.76596 | -1.02649 | 31081 ft | 262 kts | 10° |
| 2026-05-07 08:07 | 51.78240 | -1.02225 | 31083 ft | 266 kts | 10° |
| 2026-05-07 08:07 | 51.80084 | -1.01750 | 31082 ft | 270 kts | 10° |
| 2026-05-07 08:07 | 51.81946 | -1.01269 | 31077 ft | 272 kts | 11° |
| 2026-05-07 08:08 | 51.83797 | -1.00798 | 31077 ft | 273 kts | 9° |
| 2026-05-07 08:08 | 51.85703 | -1.00848 | 31073 ft | 277 kts | 352° |
| 2026-05-07 08:08 | 51.87596 | -1.01454 | 31074 ft | 278 kts | 351° |
| 2026-05-07 08:08 | 51.89491 | -1.02076 | 31077 ft | 279 kts | 351° |
| 2026-05-07 08:09 | 51.91398 | -1.02694 | 31080 ft | 280 kts | 351° |
| 2026-05-07 08:09 | 51.93310 | -1.03312 | 31080 ft | 281 kts | 351° |
| 2026-05-07 08:09 | 51.95224 | -1.03934 | 31076 ft | 281 kts | 351° |
| 2026-05-07 08:09 | 51.96700 | -1.04414 | 31076 ft | 281 kts | 351° |
| 2026-05-07 08:10 | 51.98621 | -1.05040 | 31077 ft | 282 kts | 351° |
| 2026-05-07 08:10 | 52.00542 | -1.05665 | 31075 ft | 282 kts | 351° |
| 2026-05-07 08:10 | 52.02463 | -1.06291 | 31077 ft | 282 kts | 351° |
| 2026-05-07 08:10 | 52.04277 | -1.06883 | 31074 ft | 282 kts | 351° |
| 2026-05-07 08:11 | 52.06191 | -1.07508 | 31072 ft | 282 kts | 351° |
| 2026-05-07 08:11 | 52.08116 | -1.08137 | 31072 ft | 282 kts | 351° |
| 2026-05-07 08:11 | 52.10039 | -1.08766 | 31075 ft | 282 kts | 351° |
| 2026-05-07 08:11 | 52.11963 | -1.09396 | 31076 ft | 282 kts | 351° |
| 2026-05-07 08:12 | 52.13338 | -1.09847 | 31077 ft | 282 kts | 351° |
| 2026-05-07 08:12 | 52.15262 | -1.10478 | 31077 ft | 282 kts | 351° |
| 2026-05-07 08:12 | 52.17088 | -1.11077 | 31075 ft | 282 kts | 351° |
| 2026-05-07 08:12 | 52.18966 | -1.12005 | 31080 ft | 282 kts | 340° |
| 2026-05-07 08:13 | 52.20779 | -1.13240 | 31077 ft | 283 kts | 340° |
| 2026-05-07 08:13 | 52.22591 | -1.14452 | 31072 ft | 284 kts | 340° |
| 2026-05-07 08:13 | 52.24419 | -1.15672 | 31077 ft | 284 kts | 340° |
| 2026-05-07 08:13 | 52.26247 | -1.16900 | 31077 ft | 284 kts | 340° |
| 2026-05-07 08:14 | 52.28074 | -1.18130 | 31071 ft | 284 kts | 340° |
| 2026-05-07 08:14 | 52.29902 | -1.19360 | 31076 ft | 284 kts | 340° |
| 2026-05-07 08:14 | 52.31659 | -1.20543 | 31073 ft | 284 kts | 340° |
| 2026-05-07 08:14 | 52.33484 | -1.21773 | 31077 ft | 284 kts | 340° |
| 2026-05-07 08:15 | 52.35309 | -1.23004 | 31074 ft | 284 kts | 340° |
| 2026-05-07 08:15 | 52.37132 | -1.24235 | 31076 ft | 283 kts | 340° |
| 2026-05-07 08:15 | 52.38955 | -1.25467 | 31073 ft | 283 kts | 340° |
| 2026-05-07 08:15 | 52.40694 | -1.26643 | 31073 ft | 283 kts | 340° |
| 2026-05-07 08:16 | 52.42413 | -1.27807 | 31048 ft | 283 kts | 340° |
| 2026-05-07 08:16 | 52.44236 | -1.29042 | 31047 ft | 283 kts | 340° |
| 2026-05-07 08:16 | 52.46056 | -1.30276 | 31031 ft | 283 kts | 340° |
| 2026-05-07 08:16 | 52.47854 | -1.31497 | 31032 ft | 283 kts | 340° |
| 2026-05-07 08:17 | 52.49554 | -1.32652 | 31030 ft | 283 kts | 340° |
| 2026-05-07 08:17 | 52.51349 | -1.33873 | 31028 ft | 283 kts | 340° |
| 2026-05-07 08:17 | 52.53169 | -1.35111 | 31021 ft | 283 kts | 340° |
| 2026-05-07 08:17 | 52.55000 | -1.36273 | 31015 ft | 281 kts | 343° |
| 2026-05-07 08:18 | 52.56835 | -1.37367 | 31011 ft | 281 kts | 342° |
| 2026-05-07 08:18 | 52.58638 | -1.38472 | 31013 ft | 282 kts | 342° |
| 2026-05-07 08:18 | 52.60475 | -1.39588 | 31010 ft | 282 kts | 343° |
| 2026-05-07 08:18 | 52.62316 | -1.40695 | 31013 ft | 282 kts | 343° |
| 2026-05-07 08:19 | 52.64156 | -1.41804 | 31014 ft | 282 kts | 343° |
| 2026-05-07 08:19 | 52.65972 | -1.42904 | 31010 ft | 282 kts | 343° |
| 2026-05-07 08:19 | 52.67809 | -1.44018 | 31014 ft | 282 kts | 343° |
| 2026-05-07 08:19 | 52.69651 | -1.45134 | 31009 ft | 282 kts | 343° |
| 2026-05-07 08:20 | 52.71492 | -1.46250 | 31015 ft | 282 kts | 343° |
| 2026-05-07 08:20 | 52.73332 | -1.47368 | 31021 ft | 282 kts | 343° |
| 2026-05-07 08:20 | 52.75172 | -1.48486 | 31071 ft | 282 kts | 342° |
| 2026-05-07 08:20 | 52.77017 | -1.49608 | 31071 ft | 282 kts | 342° |
| 2026-05-07 08:21 | 52.78854 | -1.50726 | 31067 ft | 282 kts | 342° |
| 2026-05-07 08:21 | 52.80693 | -1.51848 | 31065 ft | 282 kts | 342° |
| 2026-05-07 08:21 | 52.82524 | -1.52964 | 31062 ft | 282 kts | 342° |
| 2026-05-07 08:21 | 52.84194 | -1.53984 | 31060 ft | 282 kts | 342° |
| 2026-05-07 08:22 | 52.86035 | -1.55108 | 31063 ft | 282 kts | 342° |
| 2026-05-07 08:22 | 52.87879 | -1.56236 | 31064 ft | 282 kts | 342° |
| 2026-05-07 08:22 | 52.89719 | -1.57363 | 31058 ft | 282 kts | 342° |
| 2026-05-07 08:22 | 52.91561 | -1.58491 | 31065 ft | 282 kts | 342° |
| 2026-05-07 08:23 | 52.93402 | -1.59619 | 31061 ft | 282 kts | 342° |
| 2026-05-07 08:23 | 52.95242 | -1.60749 | 31062 ft | 282 kts | 342° |
| 2026-05-07 08:23 | 52.97073 | -1.61874 | 31063 ft | 282 kts | 342° |
| 2026-05-07 08:23 | 52.98885 | -1.62988 | 31060 ft | 282 kts | 342° |
| 2026-05-07 08:24 | 53.00724 | -1.64120 | 31061 ft | 282 kts | 341° |
| 2026-05-07 08:24 | 53.02477 | -1.65199 | 31059 ft | 282 kts | 341° |
| 2026-05-07 08:24 | 53.04317 | -1.66334 | 31067 ft | 282 kts | 341° |
| 2026-05-07 08:24 | 53.06160 | -1.67471 | 31058 ft | 282 kts | 341° |
| 2026-05-07 08:25 | 53.07999 | -1.68608 | 31059 ft | 282 kts | 341° |
| 2026-05-07 08:25 | 53.09839 | -1.69746 | 31055 ft | 282 kts | 341° |
| 2026-05-07 08:25 | 53.11677 | -1.70884 | 31056 ft | 282 kts | 341° |
| 2026-05-07 08:25 | 53.13474 | -1.71997 | 31053 ft | 282 kts | 341° |
| 2026-05-07 08:26 | 53.17151 | -1.74278 | 31056 ft | 282 kts | 341° |
| 2026-05-07 08:26 | 53.18973 | -1.75411 | 31056 ft | 282 kts | 341° |
| 2026-05-07 08:26 | 53.20812 | -1.76555 | 31065 ft | 282 kts | 341° |
| 2026-05-07 08:27 | 53.22628 | -1.77685 | 31062 ft | 282 kts | 341° |
| 2026-05-07 08:27 | 53.24490 | -1.78845 | 31060 ft | 282 kts | 340° |
| 2026-05-07 08:27 | 53.26328 | -1.79992 | 31056 ft | 282 kts | 340° |
| 2026-05-07 08:27 | 53.28166 | -1.81139 | 31060 ft | 282 kts | 340° |
| 2026-05-07 08:28 | 53.30001 | -1.82286 | 31053 ft | 282 kts | 340° |
| 2026-05-07 08:28 | 53.31839 | -1.83435 | 31054 ft | 282 kts | 340° |
| 2026-05-07 08:28 | 53.33650 | -1.84569 | 31058 ft | 282 kts | 340° |
| 2026-05-07 08:28 | 53.35503 | -1.85730 | 31051 ft | 282 kts | 340° |
| 2026-05-07 08:29 | 53.37339 | -1.86882 | 31052 ft | 282 kts | 340° |
| 2026-05-07 08:29 | 53.39175 | -1.88034 | 31064 ft | 282 kts | 340° |
| 2026-05-07 08:29 | 53.40987 | -1.89172 | 31057 ft | 282 kts | 340° |
| 2026-05-07 08:29 | 53.42847 | -1.90342 | 31060 ft | 282 kts | 340° |
| 2026-05-07 08:30 | 53.44656 | -1.91481 | 31050 ft | 282 kts | 340° |
| 2026-05-07 08:30 | 53.46494 | -1.92639 | 31051 ft | 282 kts | 340° |
| 2026-05-07 08:30 | 53.47960 | -1.93563 | 31050 ft | 282 kts | 340° |
| 2026-05-07 08:30 | 53.49058 | -1.94256 | 31053 ft | 282 kts | 340° |
| 2026-05-07 08:31 | 53.50890 | -1.95413 | 31047 ft | 282 kts | 340° |
| 2026-05-07 08:31 | 53.52725 | -1.96573 | 31049 ft | 282 kts | 340° |
| 2026-05-07 08:31 | 53.54559 | -1.97732 | 31047 ft | 282 kts | 340° |
| 2026-05-07 08:31 | 53.56393 | -1.98893 | 31050 ft | 282 kts | 340° |
| 2026-05-07 08:32 | 53.58230 | -2.00056 | 31048 ft | 282 kts | 340° |
| 2026-05-07 08:32 | 53.60066 | -2.01220 | 31048 ft | 282 kts | 340° |
| 2026-05-07 08:32 | 53.61899 | -2.02384 | 31047 ft | 282 kts | 340° |
| 2026-05-07 08:32 | 53.63735 | -2.03549 | 31045 ft | 282 kts | 340° |
| 2026-05-07 08:33 | 53.65570 | -2.04716 | 31050 ft | 282 kts | 340° |
| 2026-05-07 08:33 | 53.67404 | -2.05883 | 31047 ft | 282 kts | 340° |
| 2026-05-07 08:33 | 53.69240 | -2.07052 | 31052 ft | 282 kts | 340° |
| 2026-05-07 08:33 | 53.71072 | -2.08221 | 31047 ft | 282 kts | 340° |
| 2026-05-07 08:34 | 53.72911 | -2.09394 | 31047 ft | 282 kts | 339° |
| 2026-05-07 08:34 | 53.74745 | -2.10586 | 31047 ft | 281 kts | 336° |
| 2026-05-07 08:34 | 53.76553 | -2.11850 | 31048 ft | 281 kts | 337° |
| 2026-05-07 08:34 | 53.78376 | -2.13058 | 31049 ft | 282 kts | 337° |
| 2026-05-07 08:35 | 53.80198 | -2.14281 | 31055 ft | 282 kts | 337° |
| 2026-05-07 08:35 | 53.82017 | -2.15529 | 31050 ft | 282 kts | 337° |
| 2026-05-07 08:35 | 53.83837 | -2.16777 | 31050 ft | 282 kts | 337° |
| 2026-05-07 08:35 | 53.85657 | -2.18021 | 31052 ft | 282 kts | 337° |
| 2026-05-07 08:36 | 53.87481 | -2.19266 | 31052 ft | 282 kts | 337° |
| 2026-05-07 08:36 | 53.89302 | -2.20512 | 31053 ft | 282 kts | 337° |
| 2026-05-07 08:36 | 53.91122 | -2.21760 | 31052 ft | 282 kts | 337° |
| 2026-05-07 08:36 | 53.92943 | -2.23008 | 31051 ft | 282 kts | 337° |
| 2026-05-07 08:37 | 53.94766 | -2.24259 | 31051 ft | 282 kts | 337° |
| 2026-05-07 08:37 | 53.96586 | -2.25509 | 31053 ft | 282 kts | 337° |
| 2026-05-07 08:37 | 53.98407 | -2.26761 | 31060 ft | 282 kts | 336° |
| 2026-05-07 08:37 | 54.00227 | -2.28014 | 31061 ft | 282 kts | 336° |
| 2026-05-07 08:38 | 54.02022 | -2.29334 | 31059 ft | 280 kts | 330° |
| 2026-05-07 08:38 | 54.03721 | -2.30927 | 31059 ft | 279 kts | 329° |
| 2026-05-07 08:38 | 54.05420 | -2.32530 | 31055 ft | 279 kts | 329° |
| 2026-05-07 08:38 | 54.07126 | -2.34124 | 31059 ft | 279 kts | 329° |
| 2026-05-07 08:39 | 54.08831 | -2.35715 | 31054 ft | 280 kts | 329° |
| 2026-05-07 08:39 | 54.10513 | -2.37291 | 31051 ft | 280 kts | 329° |
| 2026-05-07 08:39 | 54.12220 | -2.38893 | 31052 ft | 280 kts | 329° |
| 2026-05-07 08:39 | 54.13929 | -2.40498 | 31056 ft | 280 kts | 329° |
| 2026-05-07 08:40 | 54.15637 | -2.42103 | 31052 ft | 281 kts | 329° |
| 2026-05-07 08:40 | 54.17348 | -2.43712 | 31055 ft | 281 kts | 329° |
| 2026-05-07 08:40 | 54.19058 | -2.45322 | 31054 ft | 281 kts | 329° |
| 2026-05-07 08:40 | 54.20767 | -2.46933 | 31053 ft | 281 kts | 329° |
| 2026-05-07 08:41 | 54.22478 | -2.48546 | 31051 ft | 281 kts | 329° |
| 2026-05-07 08:41 | 54.24188 | -2.50161 | 31043 ft | 281 kts | 329° |
| 2026-05-07 08:41 | 54.25895 | -2.51774 | 31048 ft | 280 kts | 328° |
| 2026-05-07 08:41 | 54.27602 | -2.53389 | 31050 ft | 280 kts | 328° |
| 2026-05-07 08:42 | 54.29308 | -2.55005 | 31053 ft | 280 kts | 329° |
| 2026-05-07 08:42 | 54.31011 | -2.56619 | 31044 ft | 280 kts | 329° |
| 2026-05-07 08:42 | 54.32717 | -2.58237 | 31045 ft | 280 kts | 329° |
| 2026-05-07 08:42 | 54.34421 | -2.59856 | 31046 ft | 280 kts | 329° |
| 2026-05-07 08:43 | 54.36125 | -2.61475 | 31042 ft | 280 kts | 328° |
| 2026-05-07 08:43 | 54.37826 | -2.63093 | 31041 ft | 280 kts | 329° |
| 2026-05-07 08:43 | 54.39528 | -2.64715 | 31045 ft | 280 kts | 329° |
| 2026-05-07 08:43 | 54.41229 | -2.66336 | 31045 ft | 280 kts | 329° |
| 2026-05-07 08:44 | 54.42355 | -2.67410 | 31049 ft | 280 kts | 329° |
| 2026-05-07 08:44 | 54.44059 | -2.69038 | 31050 ft | 280 kts | 329° |
| 2026-05-07 08:44 | 54.45766 | -2.70668 | 31047 ft | 281 kts | 329° |
| 2026-05-07 08:44 | 54.48025 | -2.72830 | 31047 ft | 280 kts | 327° |
| 2026-05-07 08:45 | 54.49724 | -2.74457 | 31047 ft | 280 kts | 327° |
| 2026-05-07 08:45 | 54.50872 | -2.75558 | 31050 ft | 279 kts | 328° |
| 2026-05-07 08:45 | 54.52569 | -2.77186 | 31038 ft | 279 kts | 328° |
| 2026-05-07 08:45 | 54.54266 | -2.78815 | 31036 ft | 279 kts | 327° |
| 2026-05-07 08:46 | 54.55958 | -2.80443 | 31039 ft | 279 kts | 327° |
| 2026-05-07 08:46 | 54.57651 | -2.82071 | 31038 ft | 278 kts | 327° |
| 2026-05-07 08:46 | 54.59340 | -2.83697 | 31040 ft | 278 kts | 328° |
| 2026-05-07 08:46 | 54.61030 | -2.85327 | 31036 ft | 278 kts | 327° |
| 2026-05-07 08:47 | 54.62720 | -2.86958 | 31036 ft | 279 kts | 328° |
| 2026-05-07 08:47 | 54.64413 | -2.88592 | 31033 ft | 279 kts | 327° |
| 2026-05-07 08:47 | 54.66106 | -2.90229 | 31036 ft | 279 kts | 327° |
| 2026-05-07 08:47 | 54.67796 | -2.91865 | 31011 ft | 279 kts | 327° |
| 2026-05-07 08:48 | 54.69526 | -2.93544 | 30647 ft | 291 kts | 328° |
| 2026-05-07 08:48 | 54.71318 | -2.95282 | 30289 ft | 299 kts | 328° |
| 2026-05-07 08:48 | 54.73149 | -2.97056 | 29924 ft | 304 kts | 328° |
| 2026-05-07 08:48 | 54.75006 | -2.98858 | 29507 ft | 306 kts | 328° |
| 2026-05-07 08:49 | 54.76830 | -3.00631 | 29094 ft | 304 kts | 328° |
| 2026-05-07 08:49 | 54.78669 | -3.02421 | 28679 ft | 302 kts | 328° |
| 2026-05-07 08:49 | 54.80499 | -3.04206 | 28263 ft | 301 kts | 328° |
| 2026-05-07 08:49 | 54.82322 | -3.05985 | 27856 ft | 301 kts | 328° |
| 2026-05-07 08:50 | 54.84142 | -3.07763 | 27456 ft | 300 kts | 328° |
| 2026-05-07 08:50 | 54.85962 | -3.09544 | 27061 ft | 300 kts | 328° |
| 2026-05-07 08:50 | 54.87779 | -3.11324 | 26676 ft | 300 kts | 328° |
| 2026-05-07 08:50 | 54.89595 | -3.13105 | 26294 ft | 300 kts | 328° |
| 2026-05-07 08:51 | 54.91409 | -3.14885 | 25923 ft | 299 kts | 328° |
| 2026-05-07 08:51 | 54.93224 | -3.16668 | 25545 ft | 299 kts | 328° |
| 2026-05-07 08:51 | 54.95035 | -3.18450 | 25178 ft | 299 kts | 328° |
| 2026-05-07 08:51 | 54.96848 | -3.20235 | 24822 ft | 300 kts | 328° |
| 2026-05-07 08:52 | 54.98667 | -3.22027 | 24441 ft | 301 kts | 328° |
| 2026-05-07 08:52 | 55.00492 | -3.23829 | 24067 ft | 302 kts | 328° |
| 2026-05-07 08:52 | 55.02324 | -3.25637 | 23694 ft | 303 kts | 328° |
| 2026-05-07 08:52 | 55.04156 | -3.27449 | 23271 ft | 303 kts | 328° |
| 2026-05-07 08:53 | 55.05992 | -3.29265 | 22834 ft | 303 kts | 327° |
| 2026-05-07 08:53 | 55.07830 | -3.31086 | 22402 ft | 303 kts | 327° |
| 2026-05-07 08:53 | 55.09664 | -3.32905 | 21978 ft | 303 kts | 327° |
| 2026-05-07 08:53 | 55.11497 | -3.34725 | 21559 ft | 303 kts | 327° |
| 2026-05-07 08:54 | 55.13328 | -3.36545 | 21145 ft | 302 kts | 327° |
| 2026-05-07 08:54 | 55.15153 | -3.38360 | 20738 ft | 302 kts | 327° |
| 2026-05-07 08:54 | 55.16976 | -3.40176 | 20334 ft | 301 kts | 327° |
| 2026-05-07 08:54 | 55.18794 | -3.41989 | 19936 ft | 300 kts | 327° |
| 2026-05-07 08:55 | 55.20606 | -3.43798 | 19544 ft | 299 kts | 326° |
| 2026-05-07 08:55 | 55.22414 | -3.45602 | 19162 ft | 299 kts | 326° |
| 2026-05-07 08:55 | 55.24215 | -3.47404 | 18779 ft | 298 kts | 326° |
| 2026-05-07 08:55 | 55.26011 | -3.49200 | 18401 ft | 297 kts | 326° |
| 2026-05-07 08:56 | 55.27802 | -3.50995 | 17979 ft | 296 kts | 326° |
| 2026-05-07 08:56 | 55.29588 | -3.52786 | 17545 ft | 295 kts | 326° |
| 2026-05-07 08:56 | 55.31367 | -3.54572 | 17115 ft | 295 kts | 326° |
| 2026-05-07 08:56 | 55.33144 | -3.56358 | 16690 ft | 294 kts | 326° |
| 2026-05-07 08:57 | 55.34917 | -3.58141 | 16277 ft | 294 kts | 326° |
| 2026-05-07 08:57 | 55.36690 | -3.59927 | 15864 ft | 293 kts | 326° |
| 2026-05-07 08:57 | 55.38459 | -3.61710 | 15465 ft | 293 kts | 326° |
| 2026-05-07 08:57 | 55.40229 | -3.63496 | 15067 ft | 293 kts | 326° |
| 2026-05-07 08:58 | 55.42001 | -3.65288 | 14665 ft | 294 kts | 326° |
| 2026-05-07 08:58 | 55.43782 | -3.67089 | 14276 ft | 296 kts | 326° |
| 2026-05-07 08:58 | 55.45555 | -3.68885 | 13904 ft | 299 kts | 326° |
| 2026-05-07 08:58 | 55.47361 | -3.70714 | 13502 ft | 300 kts | 326° |
| 2026-05-07 08:59 | 55.49175 | -3.72553 | 13074 ft | 301 kts | 326° |
| 2026-05-07 08:59 | 55.50988 | -3.74393 | 12651 ft | 301 kts | 326° |
| 2026-05-07 08:59 | 55.52797 | -3.76233 | 12226 ft | 299 kts | 326° |
| 2026-05-07 08:59 | 55.54597 | -3.78065 | 11813 ft | 298 kts | 326° |
| 2026-05-07 09:00 | 55.56388 | -3.79891 | 11402 ft | 296 kts | 326° |
| 2026-05-07 09:00 | 55.58165 | -3.81705 | 10998 ft | 294 kts | 326° |
| 2026-05-07 09:00 | 55.59932 | -3.83509 | 10602 ft | 292 kts | 326° |
| 2026-05-07 09:00 | 55.61685 | -3.85302 | 10207 ft | 291 kts | 325° |
| 2026-05-07 09:01 | 55.63429 | -3.87088 | 9804 ft | 289 kts | 325° |
| 2026-05-07 09:01 | 55.65163 | -3.88864 | 9365 ft | 286 kts | 325° |
| 2026-05-07 09:01 | 55.66878 | -3.90623 | 8933 ft | 283 kts | 326° |
| 2026-05-07 09:01 | 55.68643 | -3.92155 | 8518 ft | 283 kts | 333° |
| 2026-05-07 09:02 | 55.70471 | -3.93460 | 8096 ft | 284 kts | 334° |
| 2026-05-07 09:02 | 55.72318 | -3.94701 | 7692 ft | 284 kts | 335° |
| 2026-05-07 09:02 | 55.74168 | -3.95927 | 7280 ft | 283 kts | 335° |
| 2026-05-07 09:02 | 55.76009 | -3.97148 | 6877 ft | 282 kts | 335° |
| 2026-05-07 09:03 | 55.77842 | -3.98368 | 6483 ft | 281 kts | 335° |
| 2026-05-07 09:03 | 55.79669 | -3.99587 | 6061 ft | 280 kts | 335° |
| 2026-05-07 09:03 | 55.81494 | -4.00808 | 5632 ft | 280 kts | 335° |
| 2026-05-07 09:03 | 55.83313 | -4.02024 | 5226 ft | 279 kts | 335° |
| 2026-05-07 09:04 | 55.85129 | -4.03238 | 4815 ft | 279 kts | 335° |
| 2026-05-07 09:04 | 55.86943 | -4.04450 | 4399 ft | 278 kts | 335° |
| 2026-05-07 09:04 | 55.88751 | -4.05661 | 3980 ft | 277 kts | 335° |
| 2026-05-07 09:04 | 55.90545 | -4.06872 | 3689 ft | 269 kts | 335° |
| 2026-05-07 09:05 | 55.92222 | -4.08015 | 3744 ft | 250 kts | 334° |
| 2026-05-07 09:05 | 55.93807 | -4.09296 | 3413 ft | 251 kts | 326° |
| 2026-05-07 09:05 | 55.95165 | -4.11066 | 3014 ft | 233 kts | 310° |
| 2026-05-07 09:05 | 55.96258 | -4.13041 | 2903 ft | 212 kts | 308° |
| 2026-05-07 09:06 | 55.97271 | -4.14908 | 2674 ft | 206 kts | 303° |
| 2026-05-07 09:06 | 55.97999 | -4.17036 | 2486 ft | 198 kts | 285° |
| 2026-05-07 09:06 | 55.98278 | -4.19371 | 2463 ft | 189 kts | 262° |
| 2026-05-07 09:06 | 55.98050 | -4.21613 | 2477 ft | 181 kts | 247° |
| 2026-05-07 09:07 | 55.97518 | -4.23643 | 2299 ft | 180 kts | 232° |
| 2026-05-07 09:07 | 55.96744 | -4.25403 | 2067 ft | 182 kts | 226° |
| 2026-05-07 09:07 | 55.95882 | -4.27096 | 2022 ft | 187 kts | 223° |
| 2026-05-07 09:07 | 55.94968 | -4.28762 | 1913 ft | 189 kts | 222° |
| 2026-05-07 09:08 | 55.94039 | -4.30418 | 1767 ft | 186 kts | 221° |
| 2026-05-07 09:08 | 55.93149 | -4.32044 | 1646 ft | 180 kts | 224° |
| 2026-05-07 09:08 | 55.92341 | -4.33633 | 1474 ft | 162 kts | 223° |
| 2026-05-07 09:08 | 55.91610 | -4.35024 | 1247 ft | 146 kts | 221° |
| 2026-05-07 09:09 | 55.90966 | -4.36239 | 1102 ft | 120 kts | 220° |
| 2026-05-07 09:09 | 55.90423 | -4.37264 | 864 ft | 111 kts | 222° |
| 2026-05-07 09:09 | 55.89896 | -4.38261 | 686 ft | 111 kts | 220° |
| 2026-05-07 09:09 | 55.89359 | -4.39262 | 511 ft | 116 kts | 221° |
| 2026-05-07 09:10 | 55.88790 | -4.40305 | 365 ft | 117 kts | 220° |
| 2026-05-07 09:10 | 55.88261 | -4.41352 | 182 ft | 110 kts | 220° |
| 2026-05-07 09:10 | 55.87735 | -4.42323 | 54 ft | 107 kts | 223° |
| 2026-05-07 09:10 | 55.87280 | -4.43160 | 27 ft | 78 kts | 219° |
| 2026-05-07 09:11 | 55.87045 | -4.43594 | 24 ft | 21 kts | 211° |
| 2026-05-07 09:11 | 55.86914 | -4.43691 | 24 ft | 25 kts | 199° |
| 2026-05-07 09:11 | 55.86794 | -4.43768 | 25 ft | 14 kts | 198° |
| 2026-05-07 09:11 | 55.86759 | -4.43770 | 24 ft | 0 kts | 147° |
| 2026-05-07 09:13 | 55.86745 | -4.43750 | 24 ft | 9 kts | 127° |
| 2026-05-07 09:13 | 55.86756 | -4.43599 | 24 ft | 19 kts | 75° |
| 2026-05-07 09:13 | 55.86786 | -4.43400 | 24 ft | 14 kts | 73° |
| 2026-05-07 09:13 | 55.86814 | -4.43229 | 24 ft | 18 kts | 72° |
| 2026-05-07 09:14 | 55.86854 | -4.43003 | 26 ft | 17 kts | 65° |
| 2026-05-07 09:14 | 55.86977 | -4.42869 | 24 ft | 26 kts | 25° |
| 2026-05-07 09:14 | 55.87104 | -4.42784 | 25 ft | 16 kts | 20° |
| 2026-05-07 09:14 | 55.87205 | -4.42715 | 25 ft | 8 kts | 23° |
| 2026-05-07 09:15 | 55.87229 | -4.42658 | 24 ft | 9 kts | 109° |
| 2026-05-07 09:15 | 55.87197 | -4.42567 | 25 ft | 6 kts | 198° |
| 2026-05-07 09:15 | 55.87195 | -4.42534 | 27 ft | 0 kts | 20° |